This is the latest recevied weather packets stored in our database for station/object SP1BMW-13. If no packets are shown the sender has not sent any weather packets the latest 1 day(s).
| Time | Temp. | Humidity | Pressure | Rain* | Wind** | Luminosity | Snow |
|---|---|---|---|---|---|---|---|
| 1778087272 | 10.56° C | 89% | 1007 hPa | 0 mm | 2.24 m/s, 320° | 37 W/m² | - |
| 1778087152 | 10.56° C | 89% | 1006.9 hPa | 0 mm | 0 m/s | 36 W/m² | - |
| 1778086912 | 10.56° C | 90% | 1006.8 hPa | 0 mm | 0 m/s | 36 W/m² | - |
| 1778086792 | 10.56° C | 89% | 1006.7 hPa | 0 mm | 0.89 m/s, 17° | 34 W/m² | - |
| 1778086492 | 10.56° C | 89% | 1006.9 hPa | 0 mm | 0 m/s | 22 W/m² | - |
| 1778086071 | 10.56° C | 88% | 1006.7 hPa | 0 mm | 0.89 m/s, 306° | 42 W/m² | - |
| 1778085891 | 10.56° C | 89% | 1006.8 hPa | 0 mm | 0.89 m/s, 302° | 35 W/m² | - |
| 1778085771 | 10.56° C | 89% | 1006.8 hPa | 0 mm | 0 m/s | 23 W/m² | - |
| 1778085651 | 10.56° C | 88% | 1006.4 hPa | 0 mm | 0.89 m/s, 345° | 22 W/m² | - |
| 1778085232 | 10.56° C | 88% | 1006.6 hPa | 0 mm | 1.79 m/s, 318° | 44 W/m² | - |
| 1778085112 | 10.56° C | 88% | 1006.6 hPa | 0 mm | 1.79 m/s, 312° | 50 W/m² | - |
| 1778084932 | 10.56° C | 88% | 1006.6 hPa | 0 mm | 0.89 m/s, 333° | 41 W/m² | - |
| 1778084752 | 10.56° C | 88% | 1006.5 hPa | 0 mm | 0.89 m/s, 14° | 48 W/m² | - |
| 1778084692 | 11.11° C | 88% | 1006.6 hPa | 0 mm | 1.34 m/s, 304° | 49 W/m² | - |
| 1778084632 | 11.11° C | 87% | 1006.5 hPa | 0 mm | 0.45 m/s, 345° | 49 W/m² | - |
| 1778084332 | 11.11° C | 88% | 1006.6 hPa | 0 mm | 0 m/s | 65 W/m² | - |
| 1778084212 | 11.11° C | 88% | 1006.6 hPa | 0 mm | 1.34 m/s, 285° | 63 W/m² | - |
| 1778084092 | 11.11° C | 87% | 1006.7 hPa | 0 mm | 0.89 m/s, 276° | 70 W/m² | - |
| 1778084032 | 11.11° C | 88% | 1006.6 hPa | 0 mm | 1.79 m/s, 283° | 77 W/m² | - |
| 1778083912 | 11.11° C | 88% | 1006.5 hPa | 0 mm | 0 m/s | 86 W/m² | - |
| 1778083612 | 10.56° C | 89% | 1006.5 hPa | 0 mm | 0.89 m/s, 301° | 105 W/m² | - |
| 1778083552 | 10.56° C | 88% | 1006.5 hPa | 0 mm | 0.45 m/s, 310° | 110 W/m² | - |
| 1778083312 | 10.56° C | 88% | 1006.7 hPa | 0 mm | 1.34 m/s, 310° | 106 W/m² | - |
| 1778083132 | 10.56° C | 89% | 1006.7 hPa | 0 mm | 0.89 m/s, 30° | 104 W/m² | - |
| 1778082772 | 10.56° C | 88% | 1006.7 hPa | 0 mm | 0.89 m/s, 324° | 98 W/m² | - |
* Rain latest hour (hover to see other rain measurements)
** Current wind speed in m/s (hover to see current wind gust speed)